sensor_id;sensor_type;location;lat;lon;timestamp;P1;durP1;ratioP1;P2;durP2;ratioP2
44228;SDS011;29904;51.058;5.378;2023-03-23T00:01:15;3.47;;;1.50;;
44228;SDS011;29904;51.058;5.378;2023-03-23T00:03:46;3.13;;;1.60;;
44228;SDS011;29904;51.058;5.378;2023-03-23T00:06:15;3.45;;;1.35;;
44228;SDS011;29904;51.058;5.378;2023-03-23T00:08:45;3.13;;;1.40;;
44228;SDS011;29904;51.058;5.378;2023-03-23T00:11:21;3.08;;;1.42;;
44228;SDS011;29904;51.058;5.378;2023-03-23T00:13:49;2.60;;;1.20;;
44228;SDS011;29904;51.058;5.378;2023-03-23T00:16:16;3.53;;;1.52;;
44228;SDS011;29904;51.058;5.378;2023-03-23T00:18:54;2.53;;;1.57;;
44228;SDS011;29904;51.058;5.378;2023-03-23T00:21:24;2.65;;;1.30;;
44228;SDS011;29904;51.058;5.378;2023-03-23T00:23:58;2.15;;;1.48;;
44228;SDS011;29904;51.058;5.378;2023-03-23T00:26:44;3.10;;;1.60;;
44228;SDS011;29904;51.058;5.378;2023-03-23T00:29:13;2.90;;;1.50;;
44228;SDS011;29904;51.058;5.378;2023-03-23T00:31:44;3.33;;;1.50;;
44228;SDS011;29904;51.058;5.378;2023-03-23T00:34:13;2.45;;;1.60;;
44228;SDS011;29904;51.058;5.378;2023-03-23T00:36:45;3.45;;;1.45;;
44228;SDS011;29904;51.058;5.378;2023-03-23T00:39:12;2.72;;;1.40;;
44228;SDS011;29904;51.058;5.378;2023-03-23T00:41:41;3.22;;;1.52;;
44228;SDS011;29904;51.058;5.378;2023-03-23T00:44:10;3.17;;;1.52;;
44228;SDS011;29904;51.058;5.378;2023-03-23T00:46:42;2.83;;;1.52;;
44228;SDS011;29904;51.058;5.378;2023-03-23T00:49:10;2.55;;;1.77;;
44228;SDS011;29904;51.058;5.378;2023-03-23T00:51:39;1.97;;;1.43;;
44228;SDS011;29904;51.058;5.378;2023-03-23T00:54:05;3.50;;;1.80;;
44228;SDS011;29904;51.058;5.378;2023-03-23T00:56:31;3.13;;;1.55;;
44228;SDS011;29904;51.058;5.378;2023-03-23T00:58:58;2.55;;;1.50;;
44228;SDS011;29904;51.058;5.378;2023-03-23T01:01:23;3.97;;;1.50;;
44228;SDS011;29904;51.058;5.378;2023-03-23T01:03:51;3.50;;;1.50;;
44228;SDS011;29904;51.058;5.378;2023-03-23T01:06:25;4.22;;;1.73;;
44228;SDS011;29904;51.058;5.378;2023-03-23T01:08:52;2.22;;;1.40;;
44228;SDS011;29904;51.058;5.378;2023-03-23T01:11:18;2.17;;;1.45;;
44228;SDS011;29904;51.058;5.378;2023-03-23T01:13:45;2.90;;;1.70;;
44228;SDS011;29904;51.058;5.378;2023-03-23T01:16:12;2.97;;;1.60;;
44228;SDS011;29904;51.058;5.378;2023-03-23T01:18:38;2.00;;;1.48;;
44228;SDS011;29904;51.058;5.378;2023-03-23T01:21:08;3.28;;;1.55;;
44228;SDS011;29904;51.058;5.378;2023-03-23T01:23:36;2.50;;;1.50;;
44228;SDS011;29904;51.058;5.378;2023-03-23T01:26:12;3.22;;;1.63;;
44228;SDS011;29904;51.058;5.378;2023-03-23T01:28:40;2.75;;;1.80;;
44228;SDS011;29904;51.058;5.378;2023-03-23T01:31:07;2.85;;;1.77;;
44228;SDS011;29904;51.058;5.378;2023-03-23T01:33:38;3.70;;;1.80;;
44228;SDS011;29904;51.058;5.378;2023-03-23T01:36:05;2.97;;;1.70;;
44228;SDS011;29904;51.058;5.378;2023-03-23T01:38:33;2.93;;;1.70;;
44228;SDS011;29904;51.058;5.378;2023-03-23T01:41:00;2.27;;;1.70;;
44228;SDS011;29904;51.058;5.378;2023-03-23T01:43:26;2.72;;;1.85;;
44228;SDS011;29904;51.058;5.378;2023-03-23T01:45:53;2.78;;;1.55;;
44228;SDS011;29904;51.058;5.378;2023-03-23T01:48:23;3.45;;;1.90;;
44228;SDS011;29904;51.058;5.378;2023-03-23T01:51:07;3.45;;;1.80;;
44228;SDS011;29904;51.058;5.378;2023-03-23T01:53:45;3.08;;;1.80;;
44228;SDS011;29904;51.058;5.378;2023-03-23T01:56:16;2.50;;;1.50;;
44228;SDS011;29904;51.058;5.378;2023-03-23T01:58:45;3.08;;;1.70;;
44228;SDS011;29904;51.058;5.378;2023-03-23T02:01:12;2.73;;;1.93;;
44228;SDS011;29904;51.058;5.378;2023-03-23T02:03:41;2.47;;;1.63;;
44228;SDS011;29904;51.058;5.378;2023-03-23T02:06:10;2.90;;;1.77;;
44228;SDS011;29904;51.058;5.378;2023-03-23T02:08:37;1.88;;;1.50;;
44228;SDS011;29904;51.058;5.378;2023-03-23T02:11:12;2.33;;;1.63;;
44228;SDS011;29904;51.058;5.378;2023-03-23T02:13:40;2.70;;;1.85;;
44228;SDS011;29904;51.058;5.378;2023-03-23T02:16:14;2.92;;;2.00;;
44228;SDS011;29904;51.058;5.378;2023-03-23T02:19:12;3.07;;;2.07;;
44228;SDS011;29904;51.058;5.378;2023-03-23T02:22:04;2.25;;;1.60;;
44228;SDS011;29904;51.058;5.378;2023-03-23T02:27:42;3.50;;;1.90;;
44228;SDS011;29904;51.058;5.378;2023-03-23T02:35:54;3.38;;;2.15;;
44228;SDS011;29904;51.058;5.378;2023-03-23T02:41:31;2.33;;;1.80;;
44228;SDS011;29904;51.058;5.378;2023-03-23T02:44:00;3.08;;;1.80;;
44228;SDS011;29904;51.058;5.378;2023-03-23T02:46:28;3.13;;;1.88;;
44228;SDS011;29904;51.058;5.378;2023-03-23T02:48:55;3.08;;;1.90;;
44228;SDS011;29904;51.058;5.378;2023-03-23T02:51:24;2.90;;;1.95;;
44228;SDS011;29904;51.058;5.378;2023-03-23T02:53:50;3.20;;;2.00;;
44228;SDS011;29904;51.058;5.378;2023-03-23T02:56:19;3.03;;;1.80;;
44228;SDS011;29904;51.058;5.378;2023-03-23T02:58:48;3.47;;;2.15;;
44228;SDS011;29904;51.058;5.378;2023-03-23T03:03:59;2.92;;;1.80;;
44228;SDS011;29904;51.058;5.378;2023-03-23T03:09:23;2.92;;;1.80;;
44228;SDS011;29904;51.058;5.378;2023-03-23T03:12:00;4.10;;;1.80;;
44228;SDS011;29904;51.058;5.378;2023-03-23T03:14:38;2.08;;;1.58;;
44228;SDS011;29904;51.058;5.378;2023-03-23T03:17:19;3.22;;;1.67;;
44228;SDS011;29904;51.058;5.378;2023-03-23T03:19:48;3.88;;;1.85;;
44228;SDS011;29904;51.058;5.378;2023-03-23T03:22:16;3.63;;;1.60;;
44228;SDS011;29904;51.058;5.378;2023-03-23T03:24:46;3.42;;;1.80;;
44228;SDS011;29904;51.058;5.378;2023-03-23T03:27:14;4.37;;;1.80;;
44228;SDS011;29904;51.058;5.378;2023-03-23T03:29:44;2.47;;;1.65;;
44228;SDS011;29904;51.058;5.378;2023-03-23T03:32:15;2.83;;;1.70;;
44228;SDS011;29904;51.058;5.378;2023-03-23T03:34:44;3.08;;;1.70;;
44228;SDS011;29904;51.058;5.378;2023-03-23T03:37:12;2.35;;;1.60;;
44228;SDS011;29904;51.058;5.378;2023-03-23T03:39:38;4.25;;;1.70;;
44228;SDS011;29904;51.058;5.378;2023-03-23T03:42:05;3.45;;;1.80;;
44228;SDS011;29904;51.058;5.378;2023-03-23T03:44:31;3.05;;;1.60;;
44228;SDS011;29904;51.058;5.378;2023-03-23T03:46:58;3.83;;;1.70;;
44228;SDS011;29904;51.058;5.378;2023-03-23T03:49:23;2.35;;;1.23;;
44228;SDS011;29904;51.058;5.378;2023-03-23T03:51:50;3.10;;;1.60;;
44228;SDS011;29904;51.058;5.378;2023-03-23T03:54:16;2.87;;;1.60;;
44228;SDS011;29904;51.058;5.378;2023-03-23T03:56:42;3.08;;;1.40;;
44228;SDS011;29904;51.058;5.378;2023-03-23T03:59:08;2.83;;;1.50;;
44228;SDS011;29904;51.058;5.378;2023-03-23T04:01:34;3.80;;;1.60;;
44228;SDS011;29904;51.058;5.378;2023-03-23T04:04:02;2.03;;;1.27;;
44228;SDS011;29904;51.058;5.378;2023-03-23T04:06:29;3.58;;;1.50;;
44228;SDS011;29904;51.058;5.378;2023-03-23T04:08:58;2.03;;;1.20;;
44228;SDS011;29904;51.058;5.378;2023-03-23T04:11:26;3.78;;;1.50;;
44228;SDS011;29904;51.058;5.378;2023-03-23T04:13:52;2.15;;;1.20;;
44228;SDS011;29904;51.058;5.378;2023-03-23T04:16:18;4.00;;;1.30;;
44228;SDS011;29904;51.058;5.378;2023-03-23T04:18:43;3.80;;;1.30;;
44228;SDS011;29904;51.058;5.378;2023-03-23T04:21:10;2.83;;;1.30;;
44228;SDS011;29904;51.058;5.378;2023-03-23T04:23:35;2.92;;;1.30;;
44228;SDS011;29904;51.058;5.378;2023-03-23T04:26:02;4.50;;;1.40;;
44228;SDS011;29904;51.058;5.378;2023-03-23T04:28:28;3.83;;;1.40;;
44228;SDS011;29904;51.058;5.378;2023-03-23T04:30:58;3.75;;;1.20;;
44228;SDS011;29904;51.058;5.378;2023-03-23T04:33:25;2.53;;;1.17;;
44228;SDS011;29904;51.058;5.378;2023-03-23T04:35:53;3.53;;;1.13;;
44228;SDS011;29904;51.058;5.378;2023-03-23T04:38:21;2.05;;;1.40;;
44228;SDS011;29904;51.058;5.378;2023-03-23T04:40:50;3.42;;;1.20;;
44228;SDS011;29904;51.058;5.378;2023-03-23T04:43:18;3.80;;;1.20;;
44228;SDS011;29904;51.058;5.378;2023-03-23T04:45:46;4.03;;;1.30;;
44228;SDS011;29904;51.058;5.378;2023-03-23T04:48:20;2.65;;;1.15;;
44228;SDS011;29904;51.058;5.378;2023-03-23T04:50:51;2.80;;;1.38;;
44228;SDS011;29904;51.058;5.378;2023-03-23T04:53:17;3.10;;;1.20;;
44228;SDS011;29904;51.058;5.378;2023-03-23T04:55:43;5.05;;;1.30;;
44228;SDS011;29904;51.058;5.378;2023-03-23T04:58:10;3.17;;;1.02;;
44228;SDS011;29904;51.058;5.378;2023-03-23T05:00:40;3.33;;;1.10;;
44228;SDS011;29904;51.058;5.378;2023-03-23T05:03:08;3.28;;;1.17;;
44228;SDS011;29904;51.058;5.378;2023-03-23T05:05:35;3.38;;;1.15;;
44228;SDS011;29904;51.058;5.378;2023-03-23T05:08:01;3.38;;;1.00;;
44228;SDS011;29904;51.058;5.378;2023-03-23T05:10:28;3.05;;;1.20;;
44228;SDS011;29904;51.058;5.378;2023-03-23T05:12:53;3.38;;;1.15;;
44228;SDS011;29904;51.058;5.378;2023-03-23T05:15:19;3.67;;;1.15;;
44228;SDS011;29904;51.058;5.378;2023-03-23T05:17:45;5.17;;;1.30;;
44228;SDS011;29904;51.058;5.378;2023-03-23T05:20:14;3.70;;;1.10;;
44228;SDS011;29904;51.058;5.378;2023-03-23T05:22:43;3.57;;;1.13;;
44228;SDS011;29904;51.058;5.378;2023-03-23T05:25:09;3.92;;;1.05;;
44228;SDS011;29904;51.058;5.378;2023-03-23T05:27:38;3.25;;;1.08;;
44228;SDS011;29904;51.058;5.378;2023-03-23T05:30:07;2.65;;;0.90;;
44228;SDS011;29904;51.058;5.378;2023-03-23T05:32:34;3.17;;;1.00;;
44228;SDS011;29904;51.058;5.378;2023-03-23T05:35:02;2.58;;;0.90;;
44228;SDS011;29904;51.058;5.378;2023-03-23T05:37:28;3.92;;;0.90;;
44228;SDS011;29904;51.058;5.378;2023-03-23T05:39:57;3.22;;;1.00;;
44228;SDS011;29904;51.058;5.378;2023-03-23T05:42:26;3.72;;;1.05;;
44228;SDS011;29904;51.058;5.378;2023-03-23T05:44:52;3.78;;;0.90;;
44228;SDS011;29904;51.058;5.378;2023-03-23T05:47:18;3.13;;;1.00;;
44228;SDS011;29904;51.058;5.378;2023-03-23T05:49:44;3.03;;;0.90;;
44228;SDS011;29904;51.058;5.378;2023-03-23T05:52:10;3.37;;;0.93;;
44228;SDS011;29904;51.058;5.378;2023-03-23T05:54:35;3.20;;;0.98;;
44228;SDS011;29904;51.058;5.378;2023-03-23T05:57:02;2.85;;;1.10;;
44228;SDS011;29904;51.058;5.378;2023-03-23T05:59:28;3.85;;;0.95;;
44228;SDS011;29904;51.058;5.378;2023-03-23T06:01:53;2.78;;;0.98;;
44228;SDS011;29904;51.058;5.378;2023-03-23T06:04:20;4.20;;;1.13;;
44228;SDS011;29904;51.058;5.378;2023-03-23T06:06:49;3.17;;;1.17;;
44228;SDS011;29904;51.058;5.378;2023-03-23T06:09:19;2.73;;;0.70;;
44228;SDS011;29904;51.058;5.378;2023-03-23T06:11:46;2.85;;;0.90;;
44228;SDS011;29904;51.058;5.378;2023-03-23T06:14:12;2.45;;;0.90;;
44228;SDS011;29904;51.058;5.378;2023-03-23T06:16:38;3.88;;;0.80;;
44228;SDS011;29904;51.058;5.378;2023-03-23T06:19:04;3.65;;;0.80;;
44228;SDS011;29904;51.058;5.378;2023-03-23T06:21:30;2.70;;;0.97;;
44228;SDS011;29904;51.058;5.378;2023-03-23T06:23:56;4.57;;;1.02;;
44228;SDS011;29904;51.058;5.378;2023-03-23T06:26:25;2.83;;;1.02;;
44228;SDS011;29904;51.058;5.378;2023-03-23T06:28:56;3.80;;;0.95;;
44228;SDS011;29904;51.058;5.378;2023-03-23T06:31:22;3.10;;;1.10;;
44228;SDS011;29904;51.058;5.378;2023-03-23T06:33:49;2.38;;;0.80;;
44228;SDS011;29904;51.058;5.378;2023-03-23T06:36:15;2.87;;;0.90;;
44228;SDS011;29904;51.058;5.378;2023-03-23T06:38:41;2.75;;;1.00;;
44228;SDS011;29904;51.058;5.378;2023-03-23T06:41:08;4.07;;;1.27;;
44228;SDS011;29904;51.058;5.378;2023-03-23T06:43:33;3.15;;;0.90;;
44228;SDS011;29904;51.058;5.378;2023-03-23T06:46:03;2.70;;;0.88;;
44228;SDS011;29904;51.058;5.378;2023-03-23T06:48:29;3.38;;;0.90;;
44228;SDS011;29904;51.058;5.378;2023-03-23T06:50:55;3.63;;;0.95;;
44228;SDS011;29904;51.058;5.378;2023-03-23T06:53:21;4.20;;;0.80;;
44228;SDS011;29904;51.058;5.378;2023-03-23T06:55:46;2.00;;;0.80;;
44228;SDS011;29904;51.058;5.378;2023-03-23T06:58:12;2.37;;;0.77;;
44228;SDS011;29904;51.058;5.378;2023-03-23T07:00:38;4.13;;;0.90;;
44228;SDS011;29904;51.058;5.378;2023-03-23T07:03:05;4.43;;;1.08;;
44228;SDS011;29904;51.058;5.378;2023-03-23T07:05:32;2.63;;;1.20;;
44228;SDS011;29904;51.058;5.378;2023-03-23T07:08:00;2.53;;;0.82;;
44228;SDS011;29904;51.058;5.378;2023-03-23T07:10:29;4.65;;;1.10;;
44228;SDS011;29904;51.058;5.378;2023-03-23T07:12:55;3.60;;;0.80;;
44228;SDS011;29904;51.058;5.378;2023-03-23T07:15:21;2.80;;;1.05;;
44228;SDS011;29904;51.058;5.378;2023-03-23T07:17:47;2.90;;;0.88;;
44228;SDS011;29904;51.058;5.378;2023-03-23T07:20:13;4.30;;;1.02;;
44228;SDS011;29904;51.058;5.378;2023-03-23T07:22:40;4.22;;;1.00;;
44228;SDS011;29904;51.058;5.378;2023-03-23T07:25:06;3.28;;;0.90;;
44228;SDS011;29904;51.058;5.378;2023-03-23T07:27:32;3.60;;;0.90;;
44228;SDS011;29904;51.058;5.378;2023-03-23T07:29:58;2.88;;;0.80;;
44228;SDS011;29904;51.058;5.378;2023-03-23T07:32:24;3.17;;;0.90;;
44228;SDS011;29904;51.058;5.378;2023-03-23T07:34:50;3.97;;;0.80;;
44228;SDS011;29904;51.058;5.378;2023-03-23T07:37:16;4.93;;;1.10;;
44228;SDS011;29904;51.058;5.378;2023-03-23T07:39:42;3.17;;;0.95;;
44228;SDS011;29904;51.058;5.378;2023-03-23T07:42:08;4.35;;;1.10;;
44228;SDS011;29904;51.058;5.378;2023-03-23T07:44:34;4.10;;;0.77;;
44228;SDS011;29904;51.058;5.378;2023-03-23T07:47:00;4.00;;;0.90;;
44228;SDS011;29904;51.058;5.378;2023-03-23T07:49:26;4.50;;;0.93;;
44228;SDS011;29904;51.058;5.378;2023-03-23T07:51:52;3.72;;;1.10;;
44228;SDS011;29904;51.058;5.378;2023-03-23T07:54:18;3.13;;;0.83;;
44228;SDS011;29904;51.058;5.378;2023-03-23T07:56:43;3.90;;;0.90;;
44228;SDS011;29904;51.058;5.378;2023-03-23T07:59:10;4.20;;;1.08;;
44228;SDS011;29904;51.058;5.378;2023-03-23T08:01:37;4.35;;;1.00;;
44228;SDS011;29904;51.058;5.378;2023-03-23T08:04:04;2.63;;;0.90;;
44228;SDS011;29904;51.058;5.378;2023-03-23T08:06:32;3.70;;;1.00;;
44228;SDS011;29904;51.058;5.378;2023-03-23T08:08:59;4.28;;;1.02;;
44228;SDS011;29904;51.058;5.378;2023-03-23T08:11:25;2.78;;;0.70;;
44228;SDS011;29904;51.058;5.378;2023-03-23T08:13:51;1.75;;;0.40;;
44228;SDS011;29904;51.058;5.378;2023-03-23T08:16:18;1.80;;;0.30;;
44228;SDS011;29904;51.058;5.378;2023-03-23T08:18:45;1.88;;;0.40;;
44228;SDS011;29904;51.058;5.378;2023-03-23T08:21:11;1.10;;;0.30;;
44228;SDS011;29904;51.058;5.378;2023-03-23T08:23:38;1.02;;;0.20;;
44228;SDS011;29904;51.058;5.378;2023-03-23T08:26:04;2.40;;;0.30;;
44228;SDS011;29904;51.058;5.378;2023-03-23T08:28:35;0.80;;;0.30;;
44228;SDS011;29904;51.058;5.378;2023-03-23T08:31:05;1.35;;;0.30;;
44228;SDS011;29904;51.058;5.378;2023-03-23T08:33:36;1.17;;;0.30;;
44228;SDS011;29904;51.058;5.378;2023-03-23T08:36:03;2.38;;;0.30;;
44228;SDS011;29904;51.058;5.378;2023-03-23T08:38:30;1.53;;;0.40;;
44228;SDS011;29904;51.058;5.378;2023-03-23T08:40:59;1.75;;;0.40;;
44228;SDS011;29904;51.058;5.378;2023-03-23T08:43:28;1.40;;;0.40;;
44228;SDS011;29904;51.058;5.378;2023-03-23T08:45:54;0.90;;;0.30;;
44228;SDS011;29904;51.058;5.378;2023-03-23T08:48:20;2.20;;;0.40;;
44228;SDS011;29904;51.058;5.378;2023-03-23T08:50:47;0.80;;;0.30;;
44228;SDS011;29904;51.058;5.378;2023-03-23T08:53:13;1.63;;;0.40;;
44228;SDS011;29904;51.058;5.378;2023-03-23T08:55:39;2.13;;;0.40;;
44228;SDS011;29904;51.058;5.378;2023-03-23T08:58:05;1.70;;;0.45;;
44228;SDS011;29904;51.058;5.378;2023-03-23T09:00:31;2.00;;;0.40;;
44228;SDS011;29904;51.058;5.378;2023-03-23T09:02:57;1.83;;;0.50;;
44228;SDS011;29904;51.058;5.378;2023-03-23T09:05:25;1.45;;;0.40;;
44228;SDS011;29904;51.058;5.378;2023-03-23T09:07:52;0.90;;;0.50;;
44228;SDS011;29904;51.058;5.378;2023-03-23T09:10:24;2.10;;;0.52;;
44228;SDS011;29904;51.058;5.378;2023-03-23T09:12:52;1.88;;;0.75;;
44228;SDS011;29904;51.058;5.378;2023-03-23T09:15:19;2.10;;;0.70;;
44228;SDS011;29904;51.058;5.378;2023-03-23T09:17:46;1.97;;;0.67;;
44228;SDS011;29904;51.058;5.378;2023-03-23T09:20:13;2.70;;;0.70;;
44228;SDS011;29904;51.058;5.378;2023-03-23T09:22:42;2.50;;;0.82;;
44228;SDS011;29904;51.058;5.378;2023-03-23T09:25:10;1.08;;;0.70;;
44228;SDS011;29904;51.058;5.378;2023-03-23T09:27:38;1.38;;;0.50;;
44228;SDS011;29904;51.058;5.378;2023-03-23T09:30:07;3.88;;;0.90;;
44228;SDS011;29904;51.058;5.378;2023-03-23T09:32:37;1.58;;;0.70;;
44228;SDS011;29904;51.058;5.378;2023-03-23T09:35:04;1.25;;;0.75;;
44228;SDS011;29904;51.058;5.378;2023-03-23T09:37:36;1.55;;;0.80;;
44228;SDS011;29904;51.058;5.378;2023-03-23T09:40:03;2.23;;;0.90;;
44228;SDS011;29904;51.058;5.378;2023-03-23T09:50:37;2.20;;;1.00;;
44228;SDS011;29904;51.058;5.378;2023-03-23T09:53:14;3.13;;;1.60;;
44228;SDS011;29904;51.058;5.378;2023-03-23T09:55:40;5.25;;;3.03;;
44228;SDS011;29904;51.058;5.378;2023-03-23T09:58:24;5.28;;;2.67;;
44228;SDS011;29904;51.058;5.378;2023-03-23T10:03:29;2.95;;;0.95;;
44228;SDS011;29904;51.058;5.378;2023-03-23T10:05:58;4.13;;;1.10;;
44228;SDS011;29904;51.058;5.378;2023-03-23T10:08:25;3.33;;;0.82;;
44228;SDS011;29904;51.058;5.378;2023-03-23T10:11:03;3.38;;;0.90;;
44228;SDS011;29904;51.058;5.378;2023-03-23T10:19:20;2.97;;;0.90;;
44228;SDS011;29904;51.058;5.378;2023-03-23T10:22:04;3.20;;;1.00;;
44228;SDS011;29904;51.058;5.378;2023-03-23T10:24:36;2.70;;;1.10;;
44228;SDS011;29904;51.058;5.378;2023-03-23T10:27:17;2.60;;;1.10;;
44228;SDS011;29904;51.058;5.378;2023-03-23T10:29:50;2.67;;;1.33;;
44228;SDS011;29904;51.058;5.378;2023-03-23T10:32:34;2.30;;;0.70;;
44228;SDS011;29904;51.058;5.378;2023-03-23T10:35:05;2.03;;;0.70;;
44228;SDS011;29904;51.058;5.378;2023-03-23T10:37:40;1.20;;;0.70;;
44228;SDS011;29904;51.058;5.378;2023-03-23T10:40:19;2.65;;;0.73;;
44228;SDS011;29904;51.058;5.378;2023-03-23T10:42:48;2.63;;;0.82;;
44228;SDS011;29904;51.058;5.378;2023-03-23T10:47:54;2.60;;;0.65;;
44228;SDS011;29904;51.058;5.378;2023-03-23T10:50:26;3.42;;;0.90;;
44228;SDS011;29904;51.058;5.378;2023-03-23T10:52:58;1.48;;;0.70;;
44228;SDS011;29904;51.058;5.378;2023-03-23T10:55:35;1.42;;;0.70;;
44228;SDS011;29904;51.058;5.378;2023-03-23T11:00:31;1.42;;;0.60;;
44228;SDS011;29904;51.058;5.378;2023-03-23T11:03:58;1.90;;;0.60;;
44228;SDS011;29904;51.058;5.378;2023-03-23T11:05:59;1.98;;;0.68;;
44228;SDS011;29904;51.058;5.378;2023-03-23T11:08:29;1.55;;;0.68;;
44228;SDS011;29904;51.058;5.378;2023-03-23T11:11:21;1.83;;;0.55;;
44228;SDS011;29904;51.058;5.378;2023-03-23T11:13:55;2.60;;;0.70;;
44228;SDS011;29904;51.058;5.378;2023-03-23T11:16:31;1.60;;;0.80;;
44228;SDS011;29904;51.058;5.378;2023-03-23T11:18:59;2.10;;;0.90;;
44228;SDS011;29904;51.058;5.378;2023-03-23T11:21:36;2.40;;;0.88;;
44228;SDS011;29904;51.058;5.378;2023-03-23T11:24:04;1.80;;;0.73;;
44228;SDS011;29904;51.058;5.378;2023-03-23T11:26:32;2.63;;;1.17;;
44228;SDS011;29904;51.058;5.378;2023-03-23T11:29:04;2.72;;;1.00;;
44228;SDS011;29904;51.058;5.378;2023-03-23T11:34:15;3.08;;;0.98;;
44228;SDS011;29904;51.058;5.378;2023-03-23T11:36:48;3.22;;;1.40;;
44228;SDS011;29904;51.058;5.378;2023-03-23T11:39:27;2.60;;;1.10;;
44228;SDS011;29904;51.058;5.378;2023-03-23T11:41:58;2.45;;;1.20;;
44228;SDS011;29904;51.058;5.378;2023-03-23T11:44:41;2.85;;;1.20;;
44228;SDS011;29904;51.058;5.378;2023-03-23T11:49:58;3.63;;;1.20;;
44228;SDS011;29904;51.058;5.378;2023-03-23T11:52:44;2.72;;;0.90;;
44228;SDS011;29904;51.058;5.378;2023-03-23T11:58:26;3.00;;;1.35;;
44228;SDS011;29904;51.058;5.378;2023-03-23T12:00:59;3.67;;;1.20;;
44228;SDS011;29904;51.058;5.378;2023-03-23T12:06:52;2.72;;;1.10;;
44228;SDS011;29904;51.058;5.378;2023-03-23T12:09:33;3.35;;;1.50;;
44228;SDS011;29904;51.058;5.378;2023-03-23T12:18:06;4.45;;;1.23;;
44228;SDS011;29904;51.058;5.378;2023-03-23T12:23:13;3.05;;;1.25;;
44228;SDS011;29904;51.058;5.378;2023-03-23T12:25:43;3.55;;;1.20;;
44228;SDS011;29904;51.058;5.378;2023-03-23T12:28:37;3.13;;;1.10;;
44228;SDS011;29904;51.058;5.378;2023-03-23T12:47:47;4.63;;;1.23;;
44228;SDS011;29904;51.058;5.378;2023-03-23T12:56:29;3.15;;;1.20;;
44228;SDS011;29904;51.058;5.378;2023-03-23T12:58:59;3.88;;;1.35;;
44228;SDS011;29904;51.058;5.378;2023-03-23T13:01:42;4.13;;;1.30;;
44228;SDS011;29904;51.058;5.378;2023-03-23T13:04:45;3.42;;;1.48;;
44228;SDS011;29904;51.058;5.378;2023-03-23T13:07:11;4.97;;;1.38;;
44228;SDS011;29904;51.058;5.378;2023-03-23T13:12:47;3.00;;;1.00;;
44228;SDS011;29904;51.058;5.378;2023-03-23T13:15:18;3.53;;;0.93;;
44228;SDS011;29904;51.058;5.378;2023-03-23T13:23:43;3.67;;;1.00;;
44228;SDS011;29904;51.058;5.378;2023-03-23T13:26:13;3.45;;;1.52;;
44228;SDS011;29904;51.058;5.378;2023-03-23T13:31:22;4.30;;;1.27;;
44228;SDS011;29904;51.058;5.378;2023-03-23T13:34:01;3.20;;;1.30;;
44228;SDS011;29904;51.058;5.378;2023-03-23T13:36:33;4.47;;;1.30;;
44228;SDS011;29904;51.058;5.378;2023-03-23T13:39:03;4.00;;;0.90;;
44228;SDS011;29904;51.058;5.378;2023-03-23T13:41:32;3.80;;;1.17;;
44228;SDS011;29904;51.058;5.378;2023-03-23T13:44:07;4.15;;;1.02;;
44228;SDS011;29904;51.058;5.378;2023-03-23T13:47:05;2.65;;;1.00;;
44228;SDS011;29904;51.058;5.378;2023-03-23T13:49:49;6.57;;;1.50;;
44228;SDS011;29904;51.058;5.378;2023-03-23T13:52:21;6.10;;;1.50;;
44228;SDS011;29904;51.058;5.378;2023-03-23T13:54:51;4.82;;;1.45;;
44228;SDS011;29904;51.058;5.378;2023-03-23T13:57:48;5.32;;;1.67;;
44228;SDS011;29904;51.058;5.378;2023-03-23T14:10:35;5.05;;;1.40;;
44228;SDS011;29904;51.058;5.378;2023-03-23T14:15:53;3.92;;;1.30;;
44228;SDS011;29904;51.058;5.378;2023-03-23T14:18:31;3.50;;;1.10;;
44228;SDS011;29904;51.058;5.378;2023-03-23T14:21:04;5.60;;;1.10;;
44228;SDS011;29904;51.058;5.378;2023-03-23T14:23:34;3.80;;;1.10;;
44228;SDS011;29904;51.058;5.378;2023-03-23T14:26:09;4.65;;;1.33;;
44228;SDS011;29904;51.058;5.378;2023-03-23T14:28:41;5.00;;;1.70;;
44228;SDS011;29904;51.058;5.378;2023-03-23T14:31:27;5.63;;;1.50;;
44228;SDS011;29904;51.058;5.378;2023-03-23T14:33:54;4.37;;;1.70;;
44228;SDS011;29904;51.058;5.378;2023-03-23T14:36:28;5.25;;;1.42;;
44228;SDS011;29904;51.058;5.378;2023-03-23T14:39:43;5.38;;;1.42;;
44228;SDS011;29904;51.058;5.378;2023-03-23T14:41:52;4.83;;;1.70;;
44228;SDS011;29904;51.058;5.378;2023-03-23T14:44:29;4.40;;;1.40;;
44228;SDS011;29904;51.058;5.378;2023-03-23T14:46:58;3.28;;;1.40;;
44228;SDS011;29904;51.058;5.378;2023-03-23T14:49:31;5.57;;;1.60;;
44228;SDS011;29904;51.058;5.378;2023-03-23T14:52:08;4.70;;;1.88;;
44228;SDS011;29904;51.058;5.378;2023-03-23T14:54:38;4.68;;;1.60;;
44228;SDS011;29904;51.058;5.378;2023-03-23T14:57:14;4.07;;;1.50;;
44228;SDS011;29904;51.058;5.378;2023-03-23T14:59:49;5.32;;;1.60;;
44228;SDS011;29904;51.058;5.378;2023-03-23T15:02:36;3.17;;;1.30;;
44228;SDS011;29904;51.058;5.378;2023-03-23T15:05:05;3.95;;;1.40;;
44228;SDS011;29904;51.058;5.378;2023-03-23T15:07:39;3.65;;;1.30;;
44228;SDS011;29904;51.058;5.378;2023-03-23T15:10:08;3.88;;;1.23;;
44228;SDS011;29904;51.058;5.378;2023-03-23T15:12:42;3.30;;;1.10;;
44228;SDS011;29904;51.058;5.378;2023-03-23T15:15:21;4.43;;;1.10;;
44228;SDS011;29904;51.058;5.378;2023-03-23T15:17:51;4.75;;;1.20;;
44228;SDS011;29904;51.058;5.378;2023-03-23T15:20:58;2.80;;;1.10;;
44228;SDS011;29904;51.058;5.378;2023-03-23T15:23:16;3.75;;;1.10;;
44228;SDS011;29904;51.058;5.378;2023-03-23T15:25:47;3.83;;;1.40;;
44228;SDS011;29904;51.058;5.378;2023-03-23T15:28:19;3.63;;;1.23;;
44228;SDS011;29904;51.058;5.378;2023-03-23T15:31:00;4.78;;;1.30;;
44228;SDS011;29904;51.058;5.378;2023-03-23T15:33:35;4.65;;;1.23;;
44228;SDS011;29904;51.058;5.378;2023-03-23T15:36:05;4.72;;;1.48;;
44228;SDS011;29904;51.058;5.378;2023-03-23T15:38:45;4.75;;;1.42;;
44228;SDS011;29904;51.058;5.378;2023-03-23T15:41:22;7.20;;;1.50;;
44228;SDS011;29904;51.058;5.378;2023-03-23T15:44:09;6.37;;;1.60;;
44228;SDS011;29904;51.058;5.378;2023-03-23T15:46:47;4.50;;;1.52;;
44228;SDS011;29904;51.058;5.378;2023-03-23T15:49:17;5.50;;;1.90;;
44228;SDS011;29904;51.058;5.378;2023-03-23T15:51:43;6.80;;;1.80;;
44228;SDS011;29904;51.058;5.378;2023-03-23T15:54:12;4.38;;;1.40;;
44228;SDS011;29904;51.058;5.378;2023-03-23T15:56:39;5.70;;;1.85;;
44228;SDS011;29904;51.058;5.378;2023-03-23T15:59:05;4.20;;;1.63;;
44228;SDS011;29904;51.058;5.378;2023-03-23T16:01:33;5.90;;;1.90;;
44228;SDS011;29904;51.058;5.378;2023-03-23T16:04:00;4.72;;;1.52;;
44228;SDS011;29904;51.058;5.378;2023-03-23T16:06:27;4.72;;;1.65;;
44228;SDS011;29904;51.058;5.378;2023-03-23T16:08:55;4.05;;;1.70;;
44228;SDS011;29904;51.058;5.378;2023-03-23T16:11:22;4.07;;;1.45;;
44228;SDS011;29904;51.058;5.378;2023-03-23T16:13:51;6.00;;;1.70;;
44228;SDS011;29904;51.058;5.378;2023-03-23T16:16:18;4.50;;;1.80;;
44228;SDS011;29904;51.058;5.378;2023-03-23T16:18:48;5.50;;;1.42;;
44228;SDS011;29904;51.058;5.378;2023-03-23T16:21:14;6.13;;;1.37;;
44228;SDS011;29904;51.058;5.378;2023-03-23T16:23:40;4.57;;;1.30;;
44228;SDS011;29904;51.058;5.378;2023-03-23T16:26:08;5.80;;;1.40;;
44228;SDS011;29904;51.058;5.378;2023-03-23T16:28:34;5.65;;;1.30;;
44228;SDS011;29904;51.058;5.378;2023-03-23T16:31:00;2.80;;;1.00;;
44228;SDS011;29904;51.058;5.378;2023-03-23T16:33:26;4.60;;;1.07;;
44228;SDS011;29904;51.058;5.378;2023-03-23T16:35:52;7.70;;;1.30;;
44228;SDS011;29904;51.058;5.378;2023-03-23T16:38:18;5.10;;;1.50;;
44228;SDS011;29904;51.058;5.378;2023-03-23T16:40:44;5.72;;;1.70;;
44228;SDS011;29904;51.058;5.378;2023-03-23T16:43:10;5.15;;;1.48;;
44228;SDS011;29904;51.058;5.378;2023-03-23T16:45:37;3.83;;;1.20;;
44228;SDS011;29904;51.058;5.378;2023-03-23T16:48:05;4.65;;;1.40;;
44228;SDS011;29904;51.058;5.378;2023-03-23T16:50:32;3.97;;;1.20;;
44228;SDS011;29904;51.058;5.378;2023-03-23T16:52:58;5.72;;;1.50;;